CZ-0112 weather

Kralovice Airstrip
Czechia

Public forecast

Using degrees Celsius for public forecast. Weather courtesy of forecast.io.

METAR (pilot weather report)

Closest report is Plzeň-Líně Airport, 21.1 nm (39.0 km) SSW. Retrieved 2019/03/22 07:00 UTC (43 minutes ago):

LKLN 220700Z AUTO 00000KT 9000 NCD 01/M00 Q1033

TAF (pilot weather forecast)

Forecast is more than 6 hours old.

Closest forecast is Karlovy Vary International Airport, 27.0 nm (50.0 km) WNW. Retrieved 2019/03/22 00:37 UTC (7 hours ago):

TAF LKKV 212300Z 2200/2306 VRB02KT CAVOK BECMG 2209/2211 13005KT PROB30 TEMPO 2303/2306 4000 BR